Terminal Aerodrome Forecast
Issued by NWS Omaha/Valley, NE

Home | Current Version | Previous Version | Text Only | Print | Product List | Glossary On
Versions: 1 2 3 4 5 6 7 8 9 10 11 12 13
000
FTUS43 KOAX 221720
TAFLNK
TAF
KLNK 221720Z 2218/2318 19012G20KT P6SM FEW100 BKN250
     FM222300 18008KT P6SM FEW090 BKN200
     FM230500 23006KT P6SM SCT250
     FM230900 30006KT P6SM SKC=

USA.gov is the U.S. government's official web portal to all federal, state and local government web resources and services.